METAR AND TAF INFORMATION
METAR FOR KRNT
ADDS - METARS form results

(2347 UTC 24 March 2019)
Data provider http://aviationweather.gov/metar/data/
 
METAR text: KRNT 242253Z 00000KT 10SM SCT033 SCT042 13/05 A3018 RMK AO2 SLP226 T01330050
Conditions at: KRNT (RENTON , WA, US) observed 2253 UTC 24 March 2019
Temperature: 13.3°C (56°F)
Dewpoint: 5.0°C (41°F) [RH = 57%]
Pressure (altimeter): 30.18 inches Hg (1022.1 mb)
[Sea-level pressure: 1022.6 mb]
Winds: calm
Visibility: 10 or more miles (16+ km)
Ceiling: at least 12,000 feet AGL
Clouds: scattered clouds at 3300 feet AGL
scattered clouds at 4200 feet AGL
Weather: no significant weather observed at this time

 AIRPORT MAP

 RUNWAY INFORMATION
Runway 16 Runway length 5382 ft Runway width 200 ft
Runway elevation 24 ft Runway displaced threshold 300 ft Runway heading 174
Runway 34 Runway length 5382 ft Runway width 200 ft
Runway elevation 32 ft Runway displaced threshold 340 ft Runway heading 354

 AIRPORT FREQUENCIES
Type A/D Name SEATTLE AP Frequency 119.2 MHZ
Type ATIS Name ATIS Frequency 126.95 MHZ
Type CTAF Name CTAF Frequency 124.7 MHZ
Type GND Name GND Frequency 121.6 MHZ
Type TWR Name TWR Frequency 124.7 MHZ
Type UNIC Name UNICOM Frequency 122.85 MHZ

 AIRPORT NEAR NAVIGATION AIDS
Type NDB Name Renton Frequency 353 KHZ



Powered by Virtual Airlines Manager [v2.6.2]